createdAt,value
2023-01-08T00:00:11.854Z,9.56
2023-01-08T00:02:47.105Z,9.13
2023-01-08T00:05:23.236Z,10.05
2023-01-08T00:07:56.514Z,10.05
2023-01-08T00:10:28.329Z,9.94
2023-01-08T00:12:58.308Z,8.95
2023-01-08T00:15:28.559Z,10.01
2023-01-08T00:18:00.971Z,10.11
2023-01-08T00:20:30.732Z,10.20
2023-01-08T00:23:00.377Z,9.97
2023-01-08T00:25:30.121Z,10.00
2023-01-08T00:27:59.745Z,10.16
2023-01-08T00:30:29.458Z,10.19
2023-01-08T00:33:01.876Z,10.13
2023-01-08T00:35:31.609Z,9.75
2023-01-08T00:38:01.313Z,10.11
2023-01-08T00:40:31.019Z,10.18
2023-01-08T00:43:00.628Z,10.23
2023-01-08T00:45:30.504Z,10.20
2023-01-08T00:48:02.923Z,10.19
2023-01-08T00:50:32.551Z,10.18
2023-01-08T00:53:02.269Z,10.11
2023-01-08T00:55:31.984Z,10.24
2023-01-08T00:58:01.710Z,9.77
2023-01-08T01:00:31.391Z,10.02
2023-01-08T01:03:03.670Z,10.19
2023-01-08T01:05:33.558Z,10.37
2023-01-08T01:08:03.201Z,10.33
2023-01-08T01:10:32.912Z,10.17
2023-01-08T01:13:02.577Z,10.50
2023-01-08T01:15:32.318Z,10.45
2023-01-08T01:18:04.603Z,10.42
2023-01-08T01:20:34.411Z,10.34
2023-01-08T01:23:04.067Z,10.46
2023-01-08T01:25:33.739Z,10.55
2023-01-08T01:28:03.387Z,10.65
2023-01-08T01:30:33.176Z,10.41
2023-01-08T01:33:05.444Z,10.65
2023-01-08T01:35:35.094Z,9.91
2023-01-08T01:38:04.748Z,10.61
2023-01-08T01:40:34.402Z,10.74
2023-01-08T01:43:04.140Z,10.72
2023-01-08T01:45:33.798Z,10.63
2023-01-08T01:48:12.946Z,10.57
2023-01-08T01:50:47.240Z,10.60
2023-01-08T01:53:22.267Z,10.65
2023-01-08T01:55:53.186Z,10.65
2023-01-08T01:58:27.329Z,10.75
2023-01-08T02:01:00.003Z,10.70
2023-01-08T02:03:35.808Z,10.77
2023-01-08T02:06:16.842Z,10.77
2023-01-08T02:08:57.193Z,10.86
2023-01-08T02:11:33.059Z,10.65
2023-01-08T02:14:08.040Z,10.74
2023-01-08T02:16:44.323Z,10.69
2023-01-08T02:19:32.594Z,10.71
2023-01-08T02:22:08.608Z,10.70
2023-01-08T02:24:54.296Z,10.81
2023-01-08T02:27:30.585Z,11.06
2023-01-08T02:30:01.240Z,10.94
2023-01-08T02:32:35.988Z,11.02
2023-01-08T02:35:05.984Z,11.03
2023-01-08T02:37:36.000Z,10.87
2023-01-08T02:40:21.781Z,10.51
2023-01-08T02:43:01.318Z,10.83
2023-01-08T02:45:42.759Z,11.08
2023-01-08T02:48:15.459Z,11.14
2023-01-08T02:50:49.722Z,11.19
2023-01-08T02:53:23.305Z,10.48
2023-01-08T02:55:55.471Z,10.66
2023-01-08T02:58:30.341Z,10.78
2023-01-08T03:01:01.623Z,11.10
2023-01-08T03:03:33.857Z,11.25
2023-01-08T03:06:06.472Z,11.31
2023-01-08T03:08:41.316Z,11.30
2023-01-08T03:11:14.162Z,11.32
2023-01-08T03:13:53.616Z,11.31
2023-01-08T03:16:28.526Z,11.01
2023-01-08T03:19:04.998Z,11.35
2023-01-08T03:21:35.744Z,10.64
2023-01-08T03:24:07.639Z,11.21
2023-01-08T03:26:41.844Z,11.30
2023-01-08T03:29:18.650Z,11.16
2023-01-08T03:31:50.498Z,11.23
2023-01-08T03:34:24.019Z,11.37
2023-01-08T03:36:58.703Z,11.15
2023-01-08T03:39:32.953Z,11.33
2023-01-08T03:42:07.484Z,11.23
2023-01-08T03:44:39.899Z,11.27
2023-01-08T03:47:12.749Z,11.23
2023-01-08T03:49:44.554Z,11.38
2023-01-08T03:52:24.307Z,11.46
2023-01-08T03:54:54.999Z,11.12
2023-01-08T03:57:24.911Z,10.94
2023-01-08T03:59:57.302Z,11.37
2023-01-08T04:02:27.038Z,11.29
2023-01-08T04:04:56.887Z,11.17
2023-01-08T04:07:26.561Z,11.21
2023-01-08T04:09:56.207Z,11.14
2023-01-08T04:12:26.666Z,11.00
2023-01-08T04:14:58.976Z,11.21
2023-01-08T04:17:28.661Z,11.31
2023-01-08T04:19:58.351Z,11.16
2023-01-08T04:22:28.119Z,11.28
2023-01-08T04:24:57.790Z,11.32
2023-01-08T04:27:27.430Z,11.43
2023-01-08T04:29:59.721Z,10.85
2023-01-08T04:32:29.416Z,11.34
2023-01-08T04:34:59.127Z,11.16
2023-01-08T04:37:28.767Z,11.20
2023-01-08T04:39:58.407Z,11.21
2023-01-08T04:42:28.033Z,11.16
2023-01-08T04:45:00.250Z,11.09
2023-01-08T04:47:29.890Z,11.15
2023-01-08T04:49:59.567Z,11.13
2023-01-08T04:52:31.031Z,11.11
2023-01-08T04:55:00.725Z,11.14
2023-01-08T04:57:30.496Z,11.10
2023-01-08T05:00:02.736Z,10.56
2023-01-08T05:02:32.694Z,11.07
2023-01-08T05:05:02.528Z,10.99
2023-01-08T05:07:32.350Z,10.84
2023-01-08T05:10:02.004Z,11.01
2023-01-08T05:12:31.691Z,10.97
2023-01-08T05:15:03.976Z,10.49
2023-01-08T05:17:33.805Z,10.74
2023-01-08T05:20:03.515Z,10.87
2023-01-08T05:22:33.175Z,10.70
2023-01-08T05:25:05.631Z,10.76
2023-01-08T05:27:35.272Z,10.84
2023-01-08T05:30:08.985Z,10.61
2023-01-08T05:32:38.771Z,10.36
2023-01-08T05:35:09.502Z,10.79
2023-01-08T05:37:39.837Z,10.61
2023-01-08T05:40:10.530Z,10.69
2023-01-08T05:42:40.540Z,10.38
2023-01-08T05:45:13.486Z,10.59
2023-01-08T05:47:43.215Z,10.57
2023-01-08T05:50:13.266Z,10.64
2023-01-08T05:52:42.936Z,10.60
2023-01-08T05:55:12.920Z,10.58
2023-01-08T05:57:42.649Z,10.40
2023-01-08T06:00:16.723Z,10.66
2023-01-08T06:02:49.228Z,10.52
2023-01-08T06:05:19.051Z,10.49
2023-01-08T06:07:48.812Z,10.32
2023-01-08T06:10:18.684Z,10.57
2023-01-08T06:12:48.385Z,10.21
2023-01-08T06:15:21.557Z,10.46
2023-01-08T06:17:51.261Z,10.33
2023-01-08T06:20:21.027Z,10.10
2023-01-08T06:22:50.764Z,10.53
2023-01-08T06:25:21.011Z,10.61
2023-01-08T06:27:53.940Z,10.64
2023-01-08T06:30:26.216Z,10.63
2023-01-08T06:32:58.660Z,10.48
2023-01-08T06:35:28.870Z,10.56
2023-01-08T06:37:58.722Z,10.54
2023-01-08T06:40:28.420Z,10.50
2023-01-08T06:42:58.143Z,10.20
2023-01-08T06:45:30.405Z,10.47
2023-01-08T06:48:04.605Z,10.08
2023-01-08T06:50:34.921Z,10.36
2023-01-08T06:53:04.998Z,10.43
2023-01-08T06:55:34.685Z,10.16
2023-01-08T06:58:04.309Z,10.52
2023-01-08T07:00:36.560Z,10.52
2023-01-08T07:03:06.829Z,9.47
2023-01-08T07:05:36.667Z,10.51
2023-01-08T07:08:06.771Z,10.33
2023-01-08T07:10:37.631Z,10.11
2023-01-08T07:13:08.023Z,10.01
2023-01-08T07:15:41.347Z,10.36
2023-01-08T07:18:13.222Z,10.25
2023-01-08T07:20:43.324Z,10.45
2023-01-08T07:23:15.788Z,9.89
2023-01-08T07:25:45.457Z,10.30
2023-01-08T07:28:15.458Z,9.93
2023-01-08T07:30:47.692Z,10.21
2023-01-08T07:33:17.333Z,10.39
2023-01-08T07:35:47.074Z,10.38
2023-01-08T07:38:16.751Z,10.24
2023-01-08T07:40:46.395Z,10.14
2023-01-08T07:43:16.085Z,9.89
2023-01-08T07:45:48.457Z,10.36
2023-01-08T07:48:18.418Z,10.44
2023-01-08T07:50:48.308Z,10.30
2023-01-08T07:53:18.158Z,10.45
2023-01-08T07:55:48.207Z,10.25
2023-01-08T07:58:17.952Z,10.62
2023-01-08T08:00:50.219Z,10.47
2023-01-08T08:03:19.937Z,10.60
2023-01-08T08:05:49.673Z,10.58
2023-01-08T08:08:19.876Z,10.63
2023-01-08T08:10:50.040Z,10.59
2023-01-08T08:13:19.736Z,10.59
2023-01-08T08:15:52.204Z,10.85
2023-01-08T08:18:22.079Z,10.54
2023-01-08T08:20:52.193Z,10.52
2023-01-08T08:23:21.937Z,10.58
2023-01-08T08:25:52.719Z,10.58
2023-01-08T08:28:23.474Z,10.33
2023-01-08T08:30:55.837Z,10.37
2023-01-08T08:33:27.751Z,10.63
2023-01-08T08:35:59.589Z,10.45
2023-01-08T08:38:29.976Z,10.25
2023-01-08T08:40:59.770Z,10.68
2023-01-08T08:43:30.612Z,10.56
2023-01-08T08:46:02.959Z,10.75
2023-01-08T08:48:32.825Z,10.70
2023-01-08T08:51:02.581Z,10.88
2023-01-08T08:53:33.357Z,10.17
2023-01-08T08:56:09.726Z,10.91
2023-01-08T08:58:41.738Z,10.20
2023-01-08T09:01:15.100Z,10.72
2023-01-08T09:03:45.901Z,10.79
2023-01-08T09:06:17.644Z,11.00
2023-01-08T09:08:47.384Z,10.60
2023-01-08T09:11:17.092Z,10.48
2023-01-08T09:13:46.839Z,10.86
2023-01-08T09:16:19.140Z,10.67
2023-01-08T09:18:50.865Z,10.81
2023-01-08T09:21:20.599Z,10.99
2023-01-08T09:23:51.774Z,11.05
2023-01-08T09:26:28.784Z,11.02
2023-01-08T09:29:01.395Z,10.22
2023-01-08T09:31:34.780Z,11.07
2023-01-08T09:34:05.528Z,10.90
2023-01-08T09:36:35.226Z,11.18
2023-01-08T09:39:04.986Z,11.10
2023-01-08T09:41:42.365Z,11.26
2023-01-08T09:44:18.667Z,10.99
2023-01-08T09:46:52.114Z,10.44
2023-01-08T09:49:28.672Z,10.97
2023-01-08T09:51:59.424Z,10.83
2023-01-08T09:54:32.526Z,10.32
2023-01-08T09:57:03.312Z,10.03
2023-01-08T09:59:33.544Z,9.49
2023-01-08T10:02:18.086Z,10.46
2023-01-08T10:04:57.182Z,9.97
2023-01-08T10:07:31.320Z,10.36
2023-01-08T10:10:04.661Z,10.06
2023-01-08T10:12:36.453Z,10.47
2023-01-08T10:15:16.544Z,10.03
2023-01-08T10:17:52.067Z,10.36
2023-01-08T10:20:28.748Z,10.18
2023-01-08T10:23:10.892Z,10.16
2023-01-08T10:25:55.915Z,9.82
2023-01-08T10:28:28.428Z,10.51
2023-01-08T10:31:06.906Z,10.12
2023-01-08T10:33:46.218Z,10.35
2023-01-08T10:36:18.613Z,10.25
2023-01-08T10:38:53.853Z,10.66
2023-01-08T10:41:24.758Z,10.17
2023-01-08T10:43:59.056Z,10.14
2023-01-08T10:46:36.738Z,10.16
2023-01-08T10:49:16.118Z,10.18
2023-01-08T10:51:54.172Z,10.34
2023-01-08T10:54:33.350Z,10.14
2023-01-08T10:57:03.303Z,9.93
2023-01-08T10:59:33.081Z,10.08
2023-01-08T11:02:04.299Z,10.29
2023-01-08T11:04:40.417Z,10.54
2023-01-08T11:07:10.466Z,10.71
2023-01-08T11:09:44.917Z,10.81
2023-01-08T11:12:33.808Z,10.74
2023-01-08T11:15:26.768Z,10.84
2023-01-08T11:18:08.167Z,9.67
2023-01-08T11:20:42.153Z,10.83
2023-01-08T11:23:18.951Z,10.75
2023-01-08T11:25:55.216Z,10.79
2023-01-08T11:28:45.860Z,10.67
2023-01-08T11:31:21.712Z,10.95
2023-01-08T11:33:56.946Z,10.86
2023-01-08T11:36:37.757Z,10.84
2023-01-08T11:39:11.778Z,10.87
2023-01-08T11:42:07.173Z,10.85
2023-01-08T11:44:45.893Z,10.80
2023-01-08T11:47:21.482Z,10.55
2023-01-08T11:50:22.711Z,10.53
2023-01-08T11:53:12.903Z,10.39
2023-01-08T11:55:52.406Z,10.85
2023-01-08T11:58:31.169Z,10.72
2023-01-08T12:01:36.115Z,10.87
2023-01-08T12:04:26.288Z,11.11
2023-01-08T12:07:05.460Z,10.64
2023-01-08T12:09:46.299Z,11.25
2023-01-08T12:12:30.083Z,10.93
2023-01-08T12:15:14.617Z,11.33
2023-01-08T12:18:07.532Z,9.82
2023-01-08T12:20:49.252Z,11.27
2023-01-08T12:23:34.481Z,11.30
2023-01-08T12:26:21.325Z,10.84
2023-01-08T12:29:12.716Z,11.19
2023-01-08T12:32:07.409Z,10.90
2023-01-08T12:34:48.954Z,10.99
2023-01-08T12:37:28.934Z,10.78
2023-01-08T12:40:07.328Z,11.00
2023-01-08T12:42:50.306Z,11.01
2023-01-08T12:45:29.558Z,10.96
2023-01-08T12:48:06.895Z,11.26
2023-01-08T12:50:44.472Z,11.29
2023-01-08T12:53:24.395Z,11.10
2023-01-08T12:56:03.305Z,11.44
2023-01-08T12:58:46.420Z,11.45
2023-01-08T13:01:30.139Z,11.43
2023-01-08T13:04:04.368Z,11.46
2023-01-08T13:06:35.168Z,11.54
2023-01-08T13:09:05.733Z,11.34
2023-01-08T13:11:42.884Z,11.66
2023-01-08T13:14:18.101Z,11.42
2023-01-08T13:16:50.760Z,11.62
2023-01-08T13:19:29.478Z,10.93
2023-01-08T13:22:02.110Z,11.34
2023-01-08T13:24:35.579Z,11.33
2023-01-08T13:27:15.193Z,10.53
2023-01-08T13:29:49.203Z,11.52
2023-01-08T13:32:45.825Z,11.24
2023-01-08T13:35:27.332Z,10.89
2023-01-08T13:38:15.613Z,11.33
2023-01-08T13:40:58.292Z,11.39
2023-01-08T13:43:33.129Z,11.27
2023-01-08T13:46:20.639Z,11.61
2023-01-08T13:48:53.434Z,11.23
2023-01-08T13:51:44.262Z,11.08
2023-01-08T13:54:35.952Z,11.02
2023-01-08T13:57:09.890Z,11.00
2023-01-08T13:59:43.371Z,10.16
2023-01-08T14:02:33.744Z,11.42
2023-01-08T14:05:21.325Z,11.40
2023-01-08T14:07:53.980Z,11.33
2023-01-08T14:10:28.939Z,11.20
2023-01-08T14:13:10.145Z,11.30
2023-01-08T14:15:41.709Z,11.19
2023-01-08T14:18:16.137Z,10.46
2023-01-08T14:20:50.843Z,9.96
2023-01-08T14:23:26.106Z,10.69
2023-01-08T14:25:56.643Z,11.13
2023-01-08T14:28:32.374Z,11.09
2023-01-08T14:31:03.540Z,10.97
2023-01-08T14:33:39.546Z,11.00
2023-01-08T14:36:11.619Z,10.20
2023-01-08T14:38:42.473Z,10.11
2023-01-08T14:41:17.466Z,10.84
2023-01-08T14:43:49.922Z,10.44
2023-01-08T14:46:25.343Z,10.59
2023-01-08T14:48:59.847Z,10.75
2023-01-08T14:51:33.866Z,10.57
2023-01-08T14:54:06.341Z,10.83
2023-01-08T14:56:38.875Z,10.85
2023-01-08T14:59:12.135Z,10.62
2023-01-08T15:01:42.354Z,11.36
2023-01-08T15:04:20.941Z,11.23
2023-01-08T15:06:51.374Z,10.26
2023-01-08T15:09:26.286Z,10.72
2023-01-08T15:11:59.598Z,10.92
2023-01-08T15:14:34.718Z,10.87
2023-01-08T15:17:13.887Z,10.74
2023-01-08T15:19:51.530Z,10.65
2023-01-08T15:22:28.607Z,10.52
2023-01-08T15:25:03.719Z,10.82
2023-01-08T15:27:39.276Z,10.07
2023-01-08T15:30:28.887Z,10.55
2023-01-08T15:33:10.001Z,10.05
2023-01-08T15:35:43.452Z,10.80
2023-01-08T15:38:14.157Z,10.14
2023-01-08T15:40:50.291Z,10.52
2023-01-08T15:43:21.734Z,10.48
2023-01-08T15:45:52.595Z,10.69
2023-01-08T15:48:24.387Z,10.00
2023-01-08T15:50:58.219Z,10.51
2023-01-08T15:53:31.627Z,10.18
2023-01-08T15:56:01.373Z,10.35
2023-01-08T15:58:31.102Z,10.88
2023-01-08T16:01:01.846Z,10.64
2023-01-08T16:03:33.112Z,10.95
2023-01-08T16:06:08.523Z,10.39
2023-01-08T16:08:45.932Z,10.78
2023-01-08T16:11:16.032Z,10.81
2023-01-08T16:13:49.861Z,10.65
2023-01-08T16:16:20.857Z,10.60
2023-01-08T16:18:52.763Z,9.92
2023-01-08T16:21:26.056Z,9.93
2023-01-08T16:23:57.834Z,10.06
2023-01-08T16:26:27.591Z,10.16
2023-01-08T16:28:57.425Z,9.75
2023-01-08T16:31:30.608Z,10.48
2023-01-08T16:34:04.277Z,10.19
2023-01-08T16:36:42.364Z,10.41
2023-01-08T16:39:14.208Z,9.75
2023-01-08T16:41:52.389Z,9.99
2023-01-08T16:44:26.213Z,9.60
2023-01-08T16:46:58.298Z,9.20
2023-01-08T16:49:29.006Z,9.49
2023-01-08T16:52:01.504Z,8.51
2023-01-08T16:54:34.975Z,8.79
2023-01-08T16:57:04.702Z,8.79
2023-01-08T16:59:37.568Z,9.35
2023-01-08T17:02:08.873Z,8.74
2023-01-08T17:04:39.839Z,9.20
2023-01-08T17:07:12.135Z,9.37
2023-01-08T17:09:45.891Z,8.58
2023-01-08T17:12:22.565Z,8.40
2023-01-08T17:14:52.642Z,8.90
2023-01-08T17:17:23.326Z,8.89
2023-01-08T17:19:53.250Z,8.88
2023-01-08T17:22:25.571Z,8.27
2023-01-08T17:25:00.604Z,9.25
2023-01-08T17:27:31.375Z,9.11
2023-01-08T17:30:01.211Z,9.20
2023-01-08T17:32:32.530Z,9.13
2023-01-08T17:35:02.267Z,9.27
2023-01-08T17:37:35.075Z,9.05
2023-01-08T17:40:04.951Z,9.35
2023-01-08T17:42:35.730Z,9.24
2023-01-08T17:45:07.123Z,8.92
2023-01-08T17:47:39.157Z,9.06
2023-01-08T17:50:14.303Z,9.15
2023-01-08T17:52:50.142Z,9.27
2023-01-08T17:55:19.990Z,8.39
2023-01-08T17:57:50.800Z,9.19
2023-01-08T18:00:22.259Z,9.31
2023-01-08T18:02:52.071Z,9.45
2023-01-08T18:05:27.580Z,9.41
2023-01-08T18:07:59.887Z,9.39
2023-01-08T18:10:30.671Z,8.81
2023-01-08T18:13:01.405Z,9.35
2023-01-08T18:15:31.350Z,9.11
2023-01-08T18:18:01.177Z,9.46
2023-01-08T18:20:32.048Z,9.92
2023-01-08T18:23:08.248Z,9.32
2023-01-08T18:25:42.039Z,9.02
2023-01-08T18:28:15.712Z,9.21
2023-01-08T18:30:50.639Z,9.22
2023-01-08T18:33:20.460Z,8.95
2023-01-08T18:35:50.716Z,9.88
2023-01-08T18:38:23.331Z,9.28
2023-01-08T18:40:59.957Z,9.64
2023-01-08T18:43:31.652Z,9.32
2023-01-08T18:46:04.494Z,9.48
2023-01-08T18:48:35.146Z,8.53
2023-01-08T18:51:05.850Z,8.87
2023-01-08T18:53:39.368Z,9.53
2023-01-08T18:56:14.562Z,9.46
2023-01-08T18:58:44.405Z,8.91
2023-01-08T19:01:14.252Z,9.25
2023-01-08T19:03:45.149Z,8.37
2023-01-08T19:06:15.411Z,8.35
2023-01-08T19:08:49.795Z,8.88
2023-01-08T19:11:20.898Z,8.39
2023-01-08T19:13:51.638Z,8.93
2023-01-08T19:16:22.664Z,9.02
2023-01-08T19:18:53.660Z,8.92
2023-01-08T19:21:23.598Z,8.52
2023-01-08T19:23:56.872Z,8.77
2023-01-08T19:26:26.901Z,9.00
2023-01-08T19:28:56.698Z,8.96
2023-01-08T19:31:26.447Z,8.79
2023-01-08T19:33:56.306Z,8.13
2023-01-08T19:36:28.047Z,9.06
2023-01-08T19:39:00.532Z,9.02
2023-01-08T19:41:46.261Z,9.04
2023-01-08T19:44:17.127Z,8.62
2023-01-08T19:46:46.954Z,8.56
2023-01-08T19:49:16.686Z,8.48
2023-01-08T19:51:47.426Z,9.01
2023-01-08T19:54:23.818Z,8.60
2023-01-08T19:56:53.563Z,8.54
2023-01-08T19:59:28.662Z,9.01
2023-01-08T20:01:58.490Z,8.60
2023-01-08T20:04:30.345Z,8.62
2023-01-08T20:07:01.025Z,8.65
2023-01-08T20:09:38.606Z,8.21
2023-01-08T20:12:09.319Z,8.27
2023-01-08T20:14:40.696Z,8.75
2023-01-08T20:17:11.845Z,8.38
2023-01-08T20:19:41.676Z,7.79
2023-01-08T20:22:11.450Z,8.10
2023-01-08T20:24:44.473Z,8.98
2023-01-08T20:27:14.315Z,8.96
2023-01-08T20:29:44.337Z,8.98
2023-01-08T20:32:14.987Z,8.69
2023-01-08T20:34:44.796Z,8.98
2023-01-08T20:37:17.656Z,9.20
2023-01-08T20:39:52.335Z,8.48
2023-01-08T20:42:33.436Z,8.52
2023-01-08T20:45:06.048Z,8.95
2023-01-08T20:47:42.555Z,9.35
2023-01-08T20:50:20.040Z,8.68
2023-01-08T20:52:52.342Z,8.47
2023-01-08T20:55:25.692Z,8.57
2023-01-08T20:57:58.722Z,8.90
2023-01-08T21:00:28.552Z,9.05
2023-01-08T21:03:00.423Z,9.35
2023-01-08T21:05:30.271Z,9.38
2023-01-08T21:08:01.076Z,9.42
2023-01-08T21:10:38.404Z,9.12
2023-01-08T21:13:12.720Z,8.74
2023-01-08T21:15:53.492Z,8.68
2023-01-08T21:18:24.471Z,9.13
2023-01-08T21:20:54.540Z,9.05
2023-01-08T21:23:25.360Z,8.98
2023-01-08T21:25:57.944Z,8.41
2023-01-08T21:28:28.455Z,8.97
2023-01-08T21:31:07.271Z,8.86
2023-01-08T21:33:38.198Z,8.96
2023-01-08T21:36:11.537Z,9.11
2023-01-08T21:38:41.661Z,9.05
2023-01-08T21:41:37.430Z,9.34
2023-01-08T21:44:21.181Z,9.24
2023-01-08T21:46:56.840Z,9.40
2023-01-08T21:49:26.652Z,9.24
2023-01-08T21:52:08.973Z,9.35
2023-01-08T21:54:39.348Z,8.70
2023-01-08T21:57:10.571Z,9.07
2023-01-08T21:59:40.406Z,9.14
2023-01-08T22:02:16.694Z,9.33
2023-01-08T22:04:47.115Z,8.82
2023-01-08T22:07:17.687Z,9.14
2023-01-08T22:09:49.464Z,8.60
2023-01-08T22:12:20.509Z,9.05
2023-01-08T22:14:50.267Z,8.31
2023-01-08T22:17:22.580Z,8.77
2023-01-08T22:19:58.315Z,8.80
2023-01-08T22:22:29.053Z,8.75
2023-01-08T22:24:58.851Z,8.98
2023-01-08T22:27:30.375Z,9.17
2023-01-08T22:30:00.228Z,9.17
2023-01-08T22:32:33.661Z,8.68
2023-01-08T22:35:03.407Z,9.07
2023-01-08T22:37:33.213Z,8.60
2023-01-08T22:40:02.943Z,9.12
2023-01-08T22:42:32.809Z,9.05
2023-01-08T22:45:02.575Z,8.97
2023-01-08T22:47:38.850Z,8.63
2023-01-08T22:50:09.022Z,8.53
2023-01-08T22:52:38.759Z,8.99
2023-01-08T22:55:10.140Z,9.25
2023-01-08T22:57:39.823Z,8.60
2023-01-08T23:00:12.603Z,9.33
2023-01-08T23:02:44.936Z,8.93
2023-01-08T23:05:14.644Z,9.22
2023-01-08T23:07:44.338Z,9.13
2023-01-08T23:10:14.359Z,8.92
2023-01-08T23:12:44.017Z,9.47
2023-01-08T23:15:14.170Z,9.44
2023-01-08T23:17:52.153Z,9.55
2023-01-08T23:20:25.016Z,8.82
2023-01-08T23:22:54.681Z,9.53
2023-01-08T23:25:24.520Z,8.89
2023-01-08T23:27:54.211Z,8.90
2023-01-08T23:30:24.219Z,8.88
2023-01-08T23:32:56.447Z,9.41
2023-01-08T23:35:26.565Z,9.57
2023-01-08T23:37:56.245Z,9.49
2023-01-08T23:40:25.890Z,9.55
2023-01-08T23:42:55.605Z,8.97
2023-01-08T23:45:25.344Z,9.54
2023-01-08T23:47:57.622Z,9.56
2023-01-08T23:50:27.357Z,9.39
2023-01-08T23:52:57.028Z,9.45
2023-01-08T23:55:26.892Z,9.59
2023-01-08T23:57:56.613Z,8.98
